Time;durP1;ratioP1;P1;durP2;ratioP2;P2;SDS_P1;SDS_P2;PMS_P1;PMS_P2;Temp;Humidity;BMP_temperature;BMP_pressure;BME280_temperature;BME280_humidity;BME280_pressure;Samples;Min_cycle;Max_cycle;Signal;HPM_P1;HPM_P2
2023/09/20 00:00:52;;;;;;;;;;;20.30;69.00;;;;;;5094424;28;19924;-67
2023/09/20 00:03:19;;;;;;;;;;;20.30;69.00;;;;;;5116671;28;19920;-67
2023/09/20 00:05:47;;;;;;;;;;;20.30;69.10;;;;;;5116627;28;19927;-74
2023/09/20 00:08:13;;;;;;;;;;;20.40;69.10;;;;;;5116616;28;19924;-67
2023/09/20 00:10:39;;;;;;;;;;;20.30;69.10;;;;;;5098577;28;19970;-67
2023/09/20 00:13:05;;;;;;;;;;;20.30;69.00;;;;;;5116727;28;19966;-67
2023/09/20 00:15:30;;;;;;;;;;;20.30;69.10;;;;;;5098228;28;20386;-68
2023/09/20 00:17:56;;;;;;;;;;;20.30;69.10;;;;;;5098432;28;19926;-67
2023/09/20 00:20:21;;;;;;;;;;;20.30;69.10;;;;;;5098066;28;19924;-74
2023/09/20 00:22:47;;;;;;;;;;;20.30;69.10;;;;;;5116345;28;20002;-67
2023/09/20 00:25:13;;;;;;;;;;;20.30;69.10;;;;;;5098505;28;20351;-67
2023/09/20 00:27:40;;;;;;;;;;;20.40;69.20;;;;;;5098263;28;19920;-71
2023/09/20 00:30:10;;;;;;;;;;;20.30;69.10;;;;;;5132343;27;19989;-67
2023/09/20 00:32:36;;;;;;;;;;;20.30;69.10;;;;;;5116354;28;19927;-67
2023/09/20 00:35:02;;;;;;;;;;;20.30;69.20;;;;;;5116122;28;20278;-74
2023/09/20 00:37:30;;;;;;;;;;;20.30;69.10;;;;;;5116149;28;19927;-68
2023/09/20 00:39:55;;;;;;;;;;;20.30;69.20;;;;;;5115682;28;19924;-72
2023/09/20 00:42:21;;;;;;;;;;;20.30;69.20;;;;;;5098139;28;20271;-68
2023/09/20 00:44:46;;;;;;;;;;;20.30;69.20;;;;;;5097889;28;20278;-74
2023/09/20 00:47:11;;;;;;;;;;;20.30;69.20;;;;;;5097983;28;19939;-67
2023/09/20 00:49:37;;;;;;;;;;;20.30;69.10;;;;;;5097706;28;19920;-67
2023/09/20 00:52:04;;;;;;;;;;;20.30;69.20;;;;;;5097722;28;19924;-73
2023/09/20 00:54:29;;;;;;;;;;;20.30;69.20;;;;;;5097404;28;19980;-75
2023/09/20 00:56:55;;;;;;;;;;;20.30;69.20;;;;;;5131824;27;19920;-74
2023/09/20 00:59:21;;;;;;;;;;;20.30;69.20;;;;;;5097428;28;19920;-68
2023/09/20 01:01:47;;;;;;;;;;;20.30;69.20;;;;;;5097360;28;20370;-68
2023/09/20 01:04:13;;;;;;;;;;;20.30;69.20;;;;;;5131718;27;19942;-74
2023/09/20 01:06:41;;;;;;;;;;;20.30;69.90;;;;;;5097598;28;20007;-74
2023/09/20 01:09:07;;;;;;;;;;;20.30;69.20;;;;;;5097184;28;19920;-74
2023/09/20 01:11:33;;;;;;;;;;;20.30;69.20;;;;;;5097454;28;19964;-68
2023/09/20 01:13:59;;;;;;;;;;;20.30;69.20;;;;;;5096666;28;20006;-74
2023/09/20 01:16:24;;;;;;;;;;;20.30;69.20;;;;;;5097215;28;20053;-67
2023/09/20 01:18:50;;;;;;;;;;;20.30;69.20;;;;;;5115286;28;19920;-73
2023/09/20 01:21:16;;;;;;;;;;;20.30;69.20;;;;;;5096887;28;19966;-67
2023/09/20 01:23:42;;;;;;;;;;;20.30;69.20;;;;;;5096915;28;20020;-72
2023/09/20 01:26:08;;;;;;;;;;;20.30;69.20;;;;;;5097218;28;20263;-74
2023/09/20 01:28:35;;;;;;;;;;;20.30;69.20;;;;;;5097117;28;20010;-67
2023/09/20 01:31:04;;;;;;;;;;;20.30;69.20;;;;;;5097096;28;19920;-73
2023/09/20 01:33:30;;;;;;;;;;;20.30;69.20;;;;;;5114996;28;19919;-68
2023/09/20 01:35:55;;;;;;;;;;;20.30;69.20;;;;;;5114930;28;20289;-68
2023/09/20 01:38:21;;;;;;;;;;;20.30;69.20;;;;;;5096820;28;19919;-74
2023/09/20 01:40:47;;;;;;;;;;;20.30;69.20;;;;;;5092872;28;19934;-67
2023/09/20 01:43:13;;;;;;;;;;;20.30;69.20;;;;;;5094523;28;19924;-68
2023/09/20 01:45:42;;;;;;;;;;;20.30;69.20;;;;;;5093469;28;20286;-67
2023/09/20 01:48:08;;;;;;;;;;;20.30;69.20;;;;;;5093223;28;19923;-74
2023/09/20 01:50:34;;;;;;;;;;;20.30;69.30;;;;;;5093003;28;20011;-67
2023/09/20 01:53:00;;;;;;;;;;;20.30;69.20;;;;;;5094200;28;20019;-67
2023/09/20 01:55:27;;;;;;;;;;;20.20;69.20;;;;;;5092910;28;19924;-75
2023/09/20 01:57:54;;;;;;;;;;;20.30;69.20;;;;;;5092764;28;20287;-74
2023/09/20 02:00:22;;;;;;;;;;;20.30;69.20;;;;;;5094222;28;20321;-74
2023/09/20 02:02:55;;;;;;;;;;;20.30;69.20;;;;;;5093995;28;19920;-67
2023/09/20 02:05:23;;;;;;;;;;;20.30;69.30;;;;;;5093052;28;19920;-74
2023/09/20 02:07:50;;;;;;;;;;;20.20;69.20;;;;;;5092820;28;20287;-69
2023/09/20 02:10:17;;;;;;;;;;;20.20;69.20;;;;;;5094205;28;20410;-74
2023/09/20 02:12:44;;;;;;;;;;;20.30;69.20;;;;;;5093950;28;20311;-67
2023/09/20 02:15:10;;;;;;;;;;;20.20;69.20;;;;;;5092878;28;19920;-68
2023/09/20 02:17:36;;;;;;;;;;;20.30;69.30;;;;;;5093737;28;20265;-75
2023/09/20 02:20:11;;;;;;;;;;;20.20;69.20;;;;;;5093532;28;19973;-74
2023/09/20 02:22:38;;;;;;;;;;;20.20;69.20;;;;;;5092402;28;20142;-68
2023/09/20 02:25:08;;;;;;;;;;;20.20;69.20;;;;;;5091797;28;19920;-67
2023/09/20 02:27:34;;;;;;;;;;;20.20;69.20;;;;;;5092370;28;19924;-73
2023/09/20 02:29:59;;;;;;;;;;;20.20;69.20;;;;;;5093582;28;19973;-67
2023/09/20 02:32:25;;;;;;;;;;;20.20;69.20;;;;;;5093606;28;20015;-67
2023/09/20 02:34:51;;;;;;;;;;;20.20;69.20;;;;;;5092185;28;19970;-67
2023/09/20 02:37:17;;;;;;;;;;;20.30;69.30;;;;;;5092498;28;19930;-68
2023/09/20 02:39:42;;;;;;;;;;;20.20;69.20;;;;;;5091712;28;19928;-67
2023/09/20 02:42:08;;;;;;;;;;;20.20;69.30;;;;;;5092021;28;19924;-67
2023/09/20 02:44:34;;;;;;;;;;;20.20;69.30;;;;;;5092333;28;19973;-67
2023/09/20 02:46:59;;;;;;;;;;;20.20;69.30;;;;;;5091989;28;20341;-68
2023/09/20 02:49:25;;;;;;;;;;;20.20;70.00;;;;;;5093161;28;19920;-74
2023/09/20 02:51:52;;;;;;;;;;;20.20;69.30;;;;;;5092166;28;19920;-68
2023/09/20 02:54:18;;;;;;;;;;;20.20;69.20;;;;;;5093294;28;20227;-73
2023/09/20 02:56:44;;;;;;;;;;;20.20;69.20;;;;;;5091805;28;19920;-73
2023/09/20 02:59:10;;;;;;;;;;;20.20;69.20;;;;;;5093055;28;19920;-68
2023/09/20 03:01:35;;;;;;;;;;;20.20;69.20;;;;;;5091665;28;19920;-67
2023/09/20 03:04:01;;;;;;;;;;;20.20;69.30;;;;;;5091676;28;19931;-67
2023/09/20 03:06:29;;;;;;;;;;;20.20;69.20;;;;;;5125708;27;19973;-68
2023/09/20 03:08:54;;;;;;;;;;;20.20;69.30;;;;;;5091639;28;19920;-67
2023/09/20 03:11:21;;;;;;;;;;;20.30;69.30;;;;;;5092870;28;19920;-67
2023/09/20 03:13:48;;;;;;;;;;;20.50;69.00;;;;;;5091999;28;19924;-68
2023/09/20 03:16:18;;;;;;;;;;;20.70;68.50;;;;;;5092715;28;19926;-72
2023/09/20 03:18:45;;;;;;;;;;;20.80;68.10;;;;;;5092788;28;19920;-74
2023/09/20 03:21:11;;;;;;;;;;;20.90;67.80;;;;;;5091384;28;19968;-67
2023/09/20 03:23:37;;;;;;;;;;;21.00;67.50;;;;;;5091689;28;19963;-67
2023/09/20 03:26:03;;;;;;;;;;;21.10;67.30;;;;;;5091280;28;19924;-74
2023/09/20 03:28:28;;;;;;;;;;;21.10;67.00;;;;;;5091841;28;20294;-68
2023/09/20 03:30:55;;;;;;;;;;;21.20;66.70;;;;;;5091244;28;19966;-67
2023/09/20 03:33:21;;;;;;;;;;;21.30;66.50;;;;;;5091504;28;19927;-67
2023/09/20 03:35:47;;;;;;;;;;;21.30;66.20;;;;;;5091322;28;19921;-68
2023/09/20 03:38:15;;;;;;;;;;;21.40;66.10;;;;;;5092454;28;19919;-75
2023/09/20 03:40:41;;;;;;;;;;;21.40;65.90;;;;;;5090927;28;19973;-68
2023/09/20 03:43:08;;;;;;;;;;;21.50;65.90;;;;;;5091477;28;19943;-74
2023/09/20 03:45:33;;;;;;;;;;;21.40;65.80;;;;;;5091495;28;19920;-67
2023/09/20 03:48:01;;;;;;;;;;;21.40;65.70;;;;;;5091309;28;19943;-68
2023/09/20 03:50:26;;;;;;;;;;;21.40;65.80;;;;;;5091476;28;19927;-74
2023/09/20 03:52:52;;;;;;;;;;;21.40;65.80;;;;;;5090906;28;20325;-74
2023/09/20 03:55:19;;;;;;;;;;;21.40;65.80;;;;;;5091408;28;19920;-68
2023/09/20 03:57:45;;;;;;;;;;;21.40;65.80;;;;;;5090919;28;19920;-74
2023/09/20 04:00:11;;;;;;;;;;;21.40;65.80;;;;;;5090953;28;19924;-68
2023/09/20 04:02:37;;;;;;;;;;;21.30;65.80;;;;;;5092255;28;20185;-72
2023/09/20 04:05:10;;;;;;;;;;;21.30;65.90;;;;;;5092295;28;19931;-73
2023/09/20 04:07:36;;;;;;;;;;;21.30;66.00;;;;;;5090748;28;19920;-68
2023/09/20 04:10:02;;;;;;;;;;;21.30;66.00;;;;;;5090962;28;20021;-67
2023/09/20 04:12:27;;;;;;;;;;;21.30;66.10;;;;;;5090877;28;20322;-73
2023/09/20 04:14:54;;;;;;;;;;;21.30;66.10;;;;;;5092184;28;20325;-67
2023/09/20 04:17:21;;;;;;;;;;;21.20;66.00;;;;;;5091063;28;19927;-68
2023/09/20 04:19:47;;;;;;;;;;;21.20;66.10;;;;;;5090743;28;20058;-67
2023/09/20 04:22:14;;;;;;;;;;;21.20;66.10;;;;;;5091075;28;20400;-68
2023/09/20 04:24:39;;;;;;;;;;;21.20;66.00;;;;;;5090836;28;19936;-67
2023/09/20 04:27:05;;;;;;;;;;;21.20;66.00;;;;;;5092140;28;20084;-74
2023/09/20 04:29:31;;;;;;;;;;;21.20;66.00;;;;;;5090793;28;20268;-74
2023/09/20 04:31:57;;;;;;;;;;;21.20;66.00;;;;;;5125061;28;19985;-68
2023/09/20 04:34:22;;;;;;;;;;;21.30;66.00;;;;;;5090971;28;19928;-68
2023/09/20 04:36:48;;;;;;;;;;;21.30;66.00;;;;;;5090675;28;19946;-67
2023/09/20 04:39:14;;;;;;;;;;;21.20;65.90;;;;;;5092174;28;19920;-68
2023/09/20 04:41:40;;;;;;;;;;;21.30;65.90;;;;;;5093879;28;19930;-67
2023/09/20 04:44:06;;;;;;;;;;;21.30;65.90;;;;;;5112275;28;20324;-67
2023/09/20 04:46:35;;;;;;;;;;;21.30;65.90;;;;;;5112285;28;20293;-67
2023/09/20 04:49:04;;;;;;;;;;;21.30;65.80;;;;;;5115308;28;19919;-74
2023/09/20 04:51:30;;;;;;;;;;;21.30;65.80;;;;;;5115918;28;20354;-68
2023/09/20 04:53:56;;;;;;;;;;;21.30;65.80;;;;;;5115744;28;19967;-68
2023/09/20 04:56:26;;;;;;;;;;;21.30;65.80;;;;;;5116017;28;19954;-74
2023/09/20 04:58:52;;;;;;;;;;;21.30;65.80;;;;;;5097396;28;20386;-68
2023/09/20 05:01:17;;;;;;;;;;;21.30;65.70;;;;;;5097338;28;19924;-67
2023/09/20 05:03:43;;;;;;;;;;;21.30;65.70;;;;;;5097610;28;19920;-72
2023/09/20 05:06:09;;;;;;;;;;;21.30;65.70;;;;;;5097294;28;20048;-68
2023/09/20 05:08:36;;;;;;;;;;;21.30;65.70;;;;;;5097475;28;19919;-68
2023/09/20 05:11:03;;;;;;;;;;;21.30;65.60;;;;;;5115752;28;20083;-68
2023/09/20 05:13:28;;;;;;;;;;;21.30;65.70;;;;;;5097504;28;19919;-73
2023/09/20 05:15:54;;;;;;;;;;;21.30;65.60;;;;;;5080194;28;19919;-74
2023/09/20 05:18:20;;;;;;;;;;;21.30;65.60;;;;;;5097292;28;19985;-74
2023/09/20 05:20:45;;;;;;;;;;;21.30;65.60;;;;;;5096977;28;20448;-74
2023/09/20 05:23:11;;;;;;;;;;;21.30;65.60;;;;;;5096976;28;20292;-74
2023/09/20 05:25:37;;;;;;;;;;;21.20;65.60;;;;;;5096843;28;20032;-68
2023/09/20 05:28:03;;;;;;;;;;;21.30;65.60;;;;;;5095847;28;19931;-73
2023/09/20 05:30:30;;;;;;;;;;;21.30;65.60;;;;;;5115048;28;20022;-67
2023/09/20 05:32:55;;;;;;;;;;;21.20;65.50;;;;;;5097099;28;19919;-67
2023/09/20 05:35:21;;;;;;;;;;;21.20;65.60;;;;;;5094427;27;20263;-72
2023/09/20 05:37:46;;;;;;;;;;;21.10;65.60;;;;;;5097956;28;20003;-77
2023/09/20 05:40:17;;;;;;;;;;;21.10;65.80;;;;;;5112399;28;19934;-75
2023/09/20 05:42:43;;;;;;;;;;;21.10;65.80;;;;;;5094743;27;19923;-71
2023/09/20 05:45:09;;;;;;;;;;;21.10;65.90;;;;;;5121640;27;19920;-74
2023/09/20 05:47:35;;;;;;;;;;;21.10;66.00;;;;;;5091288;27;20088;-73
2023/09/20 05:50:01;;;;;;;;;;;21.10;66.00;;;;;;5101886;27;19984;-73
2023/09/20 05:52:26;;;;;;;;;;;21.20;65.90;;;;;;5110386;27;20386;-74
2023/09/20 05:54:52;;;;;;;;;;;21.20;65.80;;;;;;5110256;28;20024;-72
2023/09/20 05:57:19;;;;;;;;;;;21.20;65.70;;;;;;5083147;28;19924;-67
2023/09/20 05:59:45;;;;;;;;;;;21.20;65.60;;;;;;5101699;27;19919;-74
2023/09/20 06:02:10;;;;;;;;;;;21.20;65.60;;;;;;5082677;28;19927;-75
2023/09/20 06:04:38;;;;;;;;;;;21.30;65.60;;;;;;5102096;27;19919;-67
2023/09/20 06:07:04;;;;;;;;;;;21.20;65.50;;;;;;5085747;28;19934;-67
2023/09/20 06:09:30;;;;;;;;;;;21.30;65.60;;;;;;5060383;27;20320;-74
2023/09/20 06:11:55;;;;;;;;;;;21.30;65.60;;;;;;5089201;27;20429;-69
2023/09/20 06:14:22;;;;;;;;;;;21.30;65.60;;;;;;5107079;27;20363;-73
2023/09/20 06:16:48;;;;;;;;;;;21.40;65.50;;;;;;5079362;28;19924;-69
2023/09/20 06:19:14;;;;;;;;;;;21.40;65.40;;;;;;5070470;27;19931;-73
2023/09/20 06:21:40;;;;;;;;;;;21.30;65.40;;;;;;5070324;28;19977;-69
2023/09/20 06:24:10;;;;;;;;;;;21.30;65.40;;;;;;5081642;28;19923;-69
2023/09/20 06:26:37;;;;;;;;;;;21.30;65.50;;;;;;5079485;28;19928;-70
2023/09/20 06:29:02;;;;;;;;;;;21.30;65.60;;;;;;5079171;28;20023;-73
2023/09/20 06:31:28;;;;;;;;;;;21.30;65.60;;;;;;5075470;28;19927;-69
2023/09/20 06:33:53;;;;;;;;;;;21.30;65.60;;;;;;5096517;27;19928;-68
2023/09/20 06:36:20;;;;;;;;;;;21.30;65.70;;;;;;5077408;28;20014;-73
2023/09/20 06:38:47;;;;;;;;;;;21.30;65.70;;;;;;5081806;27;20398;-72
2023/09/20 06:41:13;;;;;;;;;;;21.20;65.80;;;;;;5095201;28;20317;-67
2023/09/20 06:43:39;;;;;;;;;;;21.30;65.90;;;;;;5077604;28;20367;-74
2023/09/20 06:46:06;;;;;;;;;;;21.30;65.90;;;;;;5077388;28;19931;-68
2023/09/20 06:48:31;;;;;;;;;;;21.30;66.00;;;;;;5083714;28;20260;-67
2023/09/20 06:50:57;;;;;;;;;;;21.30;66.00;;;;;;5078760;28;19931;-66
2023/09/20 06:53:23;;;;;;;;;;;21.20;66.00;;;;;;5093929;27;19978;-75
2023/09/20 06:55:49;;;;;;;;;;;21.20;66.10;;;;;;5074156;28;19928;-67
2023/09/20 06:58:15;;;;;;;;;;;21.20;66.20;;;;;;5106876;27;19954;-70
2023/09/20 07:00:41;;;;;;;;;;;21.20;66.20;;;;;;5070226;28;19928;-68
2023/09/20 07:03:07;;;;;;;;;;;21.30;66.30;;;;;;5094174;28;19931;-67
2023/09/20 07:05:33;;;;;;;;;;;21.30;66.40;;;;;;5075523;28;19924;-74
2023/09/20 07:07:58;;;;;;;;;;;21.30;66.40;;;;;;5076274;28;19981;-73
2023/09/20 07:10:25;;;;;;;;;;;21.30;66.40;;;;;;5079076;28;20481;-71
2023/09/20 07:12:53;;;;;;;;;;;21.30;66.50;;;;;;5082138;28;19949;-73
2023/09/20 07:15:20;;;;;;;;;;;21.20;66.50;;;;;;5099513;27;19927;-67
2023/09/20 07:17:46;;;;;;;;;;;21.20;66.60;;;;;;5098999;27;19931;-75
2023/09/20 07:20:17;;;;;;;;;;;21.20;66.60;;;;;;5075161;28;19932;-74
2023/09/20 07:22:44;;;;;;;;;;;21.20;66.60;;;;;;5074520;28;19935;-74
2023/09/20 07:25:19;;;;;;;;;;;21.20;66.60;;;;;;5076083;28;19924;-74
2023/09/20 07:27:46;;;;;;;;;;;21.10;66.60;;;;;;5093937;28;19955;-67
2023/09/20 07:30:18;;;;;;;;;;;21.20;66.70;;;;;;5110978;27;19920;-73
2023/09/20 07:32:44;;;;;;;;;;;21.10;66.70;;;;;;5081686;28;19977;-67
2023/09/20 07:35:19;;;;;;;;;;;21.10;66.80;;;;;;5078183;28;20345;-67
2023/09/20 07:37:47;;;;;;;;;;;21.10;66.80;;;;;;5087480;28;19931;-72
2023/09/20 07:40:13;;;;;;;;;;;21.10;66.90;;;;;;5094353;27;19932;-68
2023/09/20 07:42:38;;;;;;;;;;;21.00;66.90;;;;;;5081892;28;20299;-72
2023/09/20 07:45:08;;;;;;;;;;;21.00;66.90;;;;;;5092966;28;19973;-73
2023/09/20 07:47:35;;;;;;;;;;;21.00;67.00;;;;;;5113806;28;19931;-68
2023/09/20 07:50:00;;;;;;;;;;;21.00;67.00;;;;;;5096248;28;20282;-68
2023/09/20 07:52:26;;;;;;;;;;;21.00;67.00;;;;;;5076940;28;19930;-77
2023/09/20 07:54:51;;;;;;;;;;;21.00;67.00;;;;;;5094913;28;19924;-77
2023/09/20 07:57:17;;;;;;;;;;;21.00;67.10;;;;;;5075739;28;19934;-68
2023/09/20 07:59:42;;;;;;;;;;;21.00;67.10;;;;;;5061740;28;20338;-68
2023/09/20 08:02:09;;;;;;;;;;;21.00;67.10;;;;;;5095611;28;19920;-77
2023/09/20 08:04:37;;;;;;;;;;;21.00;67.20;;;;;;5095389;28;20412;-71
2023/09/20 08:07:04;;;;;;;;;;;21.10;67.40;;;;;;5079461;28;19928;-73
2023/09/20 08:09:29;;;;;;;;;;;21.00;67.30;;;;;;5078959;28;19920;-67
2023/09/20 08:11:55;;;;;;;;;;;21.00;67.40;;;;;;5108338;27;19920;-69
2023/09/20 08:14:20;;;;;;;;;;;21.00;67.60;;;;;;5109277;27;19920;-69
2023/09/20 08:19:32;;;;;;;;;;;21.00;67.70;;;;;;5077965;28;20039;-73
2023/09/20 08:21:57;;;;;;;;;;;20.90;67.70;;;;;;5090259;28;20202;-77
2023/09/20 09:00:34;;;;;;;;;;;20.90;68.90;;;;;;5079722;27;19928;-76
2023/09/20 09:03:00;;;;;;;;;;;20.90;69.00;;;;;;5055682;28;19923;-70
2023/09/20 09:05:27;;;;;;;;;;;20.90;69.00;;;;;;5058644;28;20314;-77
2023/09/20 09:07:54;;;;;;;;;;;20.90;69.20;;;;;;5100028;27;19978;-69
2023/09/20 09:10:19;;;;;;;;;;;20.90;69.50;;;;;;5072149;27;19931;-71
2023/09/20 09:12:45;;;;;;;;;;;20.90;69.80;;;;;;5072829;28;19920;-68
2023/09/20 09:15:12;;;;;;;;;;;21.00;70.00;;;;;;5089548;27;19928;-74
2023/09/20 09:17:38;;;;;;;;;;;21.00;70.10;;;;;;5090384;28;20541;-70
2023/09/20 09:20:05;;;;;;;;;;;21.00;70.30;;;;;;5102967;27;19928;-73
2023/09/20 09:22:33;;;;;;;;;;;21.10;70.40;;;;;;5098095;27;19927;-75
2023/09/20 09:24:59;;;;;;;;;;;21.10;70.50;;;;;;5074398;28;20501;-70
2023/09/20 09:27:24;;;;;;;;;;;21.10;70.40;;;;;;5087428;27;19931;-77
2023/09/20 09:29:50;;;;;;;;;;;21.10;70.40;;;;;;4999820;28;20554;-70
2023/09/20 09:32:15;;;;;;;;;;;21.10;70.40;;;;;;5061626;27;19960;-71
2023/09/20 09:34:41;;;;;;;;;;;21.10;70.40;;;;;;5056569;28;19980;-74
2023/09/20 09:37:07;;;;;;;;;;;21.10;70.40;;;;;;5059795;28;20302;-79
2023/09/20 09:39:33;;;;;;;;;;;21.10;70.40;;;;;;5057664;27;20067;-70
2023/09/20 09:42:00;;;;;;;;;;;21.10;70.50;;;;;;5102516;27;20406;-69
2023/09/20 09:44:26;;;;;;;;;;;21.10;70.50;;;;;;5046925;27;20673;-71
2023/09/20 09:46:52;;;;;;;;;;;21.10;70.40;;;;;;5065648;27;20308;-71
2023/09/20 09:49:19;;;;;;;;;;;21.10;71.20;;;;;;5062193;28;20459;-72
2023/09/20 09:51:50;;;;;;;;;;;21.10;70.50;;;;;;5050882;28;20379;-70
2023/09/20 09:54:17;;;;;;;;;;;21.10;70.50;;;;;;5039414;28;20159;-71
2023/09/20 09:56:42;;;;;;;;;;;21.10;70.40;;;;;;5090460;27;19924;-72
2023/09/20 09:59:08;;;;;;;;;;;21.10;70.50;;;;;;5064914;28;19928;-77
2023/09/20 10:01:36;;;;;;;;;;;21.10;70.40;;;;;;5092254;27;19937;-72
2023/09/20 10:04:10;;;;;;;;;;;21.10;70.50;;;;;;5088824;28;20019;-71
2023/09/20 10:06:44;;;;;;;;;;;21.10;70.40;;;;;;5071107;28;20310;-78
2023/09/20 10:09:10;;;;;;;;;;;21.10;70.50;;;;;;5071107;28;19927;-71
2023/09/20 10:11:37;;;;;;;;;;;21.10;70.60;;;;;;5077453;28;19973;-76
2023/09/20 10:14:07;;;;;;;;;;;21.20;70.70;;;;;;5073535;28;19928;-77
2023/09/20 10:16:34;;;;;;;;;;;21.20;70.80;;;;;;5096760;28;20312;-72
2023/09/20 10:18:59;;;;;;;;;;;21.20;70.80;;;;;;5072873;28;19927;-70
2023/09/20 10:21:26;;;;;;;;;;;21.20;70.80;;;;;;5094047;27;19932;-71
2023/09/20 10:23:54;;;;;;;;;;;21.30;70.80;;;;;;5074744;28;19920;-71
2023/09/20 10:26:20;;;;;;;;;;;21.30;70.90;;;;;;5114595;27;20326;-72
2023/09/20 10:28:46;;;;;;;;;;;21.30;70.90;;;;;;5086460;27;20374;-78
2023/09/20 10:31:15;;;;;;;;;;;21.30;70.90;;;;;;5078188;28;19926;-74
2023/09/20 10:33:45;;;;;;;;;;;21.30;70.90;;;;;;5078077;28;19920;-74
2023/09/20 10:36:11;;;;;;;;;;;21.30;70.90;;;;;;5076137;28;20437;-75
2023/09/20 10:38:39;;;;;;;;;;;21.30;70.80;;;;;;5096336;28;19920;-74
2023/09/20 10:41:07;;;;;;;;;;;21.30;70.80;;;;;;5071081;28;20007;-71
2023/09/20 10:46:17;;;;;;;;;;;21.30;70.80;;;;;;5092198;27;19916;-73
2023/09/20 10:51:48;;;;;;;;;;;21.40;70.80;;;;;;5094958;27;19923;-75
2023/09/20 10:54:22;;;;;;;;;;;21.40;70.80;;;;;;5093887;28;19927;-77
2023/09/20 10:59:30;;;;;;;;;;;21.40;70.70;;;;;;5080345;27;20372;-75
2023/09/20 11:01:58;;;;;;;;;;;21.40;70.70;;;;;;5070945;28;20024;-74
2023/09/20 11:04:24;;;;;;;;;;;21.30;70.60;;;;;;5071095;28;19943;-73
2023/09/20 11:06:51;;;;;;;;;;;21.30;70.60;;;;;;5074592;28;19924;-70
2023/09/20 11:09:16;;;;;;;;;;;21.30;70.60;;;;;;5077737;28;19932;-69
2023/09/20 11:11:43;;;;;;;;;;;21.30;70.60;;;;;;5078150;28;19927;-72
2023/09/20 11:14:09;;;;;;;;;;;21.30;70.50;;;;;;5077491;28;20326;-73
2023/09/20 11:16:34;;;;;;;;;;;21.20;70.50;;;;;;5080295;28;21479;-70
2023/09/20 11:19:00;;;;;;;;;;;21.30;70.60;;;;;;5079164;28;19935;-73
2023/09/20 11:21:26;;;;;;;;;;;21.30;70.60;;;;;;5076103;28;20423;-74
2023/09/20 11:23:52;;;;;;;;;;;21.30;70.50;;;;;;5075280;28;20056;-73
2023/09/20 11:26:32;;;;;;;;;;;21.30;70.50;;;;;;5077677;28;20297;-72
2023/09/20 11:28:59;;;;;;;;;;;21.30;70.50;;;;;;5081177;28;19924;-74
2023/09/20 11:31:27;;;;;;;;;;;21.30;70.40;;;;;;5077177;28;19964;-76
2023/09/20 11:33:57;;;;;;;;;;;21.30;70.40;;;;;;5073923;28;19932;-72
2023/09/20 11:36:23;;;;;;;;;;;21.40;70.50;;;;;;5076773;28;19921;-71
2023/09/20 11:38:48;;;;;;;;;;;21.30;70.40;;;;;;5083788;28;20403;-72
2023/09/20 11:41:14;;;;;;;;;;;21.30;70.30;;;;;;5108856;28;19974;-73
2023/09/20 11:43:41;;;;;;;;;;;21.40;70.40;;;;;;5106511;27;19928;-72
2023/09/20 11:46:10;;;;;;;;;;;21.30;70.40;;;;;;5106542;28;20011;-74
2023/09/20 11:48:36;;;;;;;;;;;21.40;70.40;;;;;;5082771;28;19920;-72
2023/09/20 11:51:02;;;;;;;;;;;21.40;70.40;;;;;;5079145;28;19920;-73
2023/09/20 11:53:29;;;;;;;;;;;21.30;70.40;;;;;;5079337;28;20637;-73
2023/09/20 11:55:55;;;;;;;;;;;21.40;70.50;;;;;;5083052;28;19927;-73
2023/09/20 11:58:21;;;;;;;;;;;21.40;70.40;;;;;;5078806;28;19924;-72
2023/09/20 12:00:47;;;;;;;;;;;21.30;70.30;;;;;;5083396;28;19920;-74
2023/09/20 12:03:13;;;;;;;;;;;21.40;70.30;;;;;;5082597;28;20024;-73
2023/09/20 12:05:39;;;;;;;;;;;21.40;70.40;;;;;;5079212;28;20303;-71
2023/09/20 12:08:06;;;;;;;;;;;21.40;70.40;;;;;;5082216;28;19929;-73
2023/09/20 12:10:32;;;;;;;;;;;21.40;70.40;;;;;;5069701;28;19920;-75
2023/09/20 12:12:57;;;;;;;;;;;21.40;70.30;;;;;;5071191;28;19928;-75
2023/09/20 12:15:23;;;;;;;;;;;21.40;70.30;;;;;;5049335;28;20013;-75
2023/09/20 12:17:51;;;;;;;;;;;21.40;70.30;;;;;;5090736;28;20019;-75
2023/09/20 12:20:17;;;;;;;;;;;21.40;70.40;;;;;;5071012;28;19980;-75
2023/09/20 12:22:43;;;;;;;;;;;21.40;70.40;;;;;;5070128;28;19943;-71
2023/09/20 12:25:15;;;;;;;;;;;21.40;70.50;;;;;;5070999;28;19920;-73
2023/09/20 12:27:41;;;;;;;;;;;21.40;70.50;;;;;;5071188;28;19943;-75
2023/09/20 12:30:08;;;;;;;;;;;21.40;70.30;;;;;;5072275;28;19920;-75
2023/09/20 12:32:33;;;;;;;;;;;21.40;70.30;;;;;;5071639;28;19921;-76
2023/09/20 12:34:59;;;;;;;;;;;21.50;70.30;;;;;;5072485;28;19928;-76
2023/09/20 12:37:24;;;;;;;;;;;21.40;70.30;;;;;;5071109;28;20058;-75
2023/09/20 12:39:52;;;;;;;;;;;21.50;70.40;;;;;;5096926;28;19930;-73
2023/09/20 12:42:18;;;;;;;;;;;21.40;70.50;;;;;;5070781;28;19931;-74
2023/09/20 12:44:43;;;;;;;;;;;21.50;71.10;;;;;;5068665;28;19920;-74
2023/09/20 12:47:09;;;;;;;;;;;21.50;70.40;;;;;;5071006;28;20041;-75
2023/09/20 12:49:36;;;;;;;;;;;21.50;70.40;;;;;;5069459;28;19920;-79
2023/09/20 12:52:03;;;;;;;;;;;21.50;70.30;;;;;;5071342;28;20272;-74
2023/09/20 12:54:29;;;;;;;;;;;21.50;70.30;;;;;;5070552;28;19943;-73
2023/09/20 12:56:55;;;;;;;;;;;21.50;70.30;;;;;;5101509;27;19990;-73
2023/09/20 12:59:26;;;;;;;;;;;21.50;70.40;;;;;;5070192;28;20359;-75
2023/09/20 13:01:53;;;;;;;;;;;21.50;70.30;;;;;;5094200;28;20354;-73
2023/09/20 13:04:19;;;;;;;;;;;21.50;70.30;;;;;;5061734;28;20112;-74
2023/09/20 13:06:45;;;;;;;;;;;21.50;70.30;;;;;;5059920;28;20273;-72
2023/09/20 13:09:14;;;;;;;;;;;21.40;70.30;;;;;;5059675;28;19920;-73
2023/09/20 13:11:41;;;;;;;;;;;21.40;70.30;;;;;;5060655;28;19932;-72
2023/09/20 13:14:07;;;;;;;;;;;21.40;70.40;;;;;;5059816;28;20016;-73
2023/09/20 13:16:34;;;;;;;;;;;21.40;70.40;;;;;;5062659;28;20417;-72
2023/09/20 13:19:02;;;;;;;;;;;21.40;70.40;;;;;;5094844;28;20019;-72
2023/09/20 13:21:28;;;;;;;;;;;21.30;70.40;;;;;;5058433;28;19962;-72
2023/09/20 13:23:54;;;;;;;;;;;21.30;70.50;;;;;;5062078;28;19921;-72
2023/09/20 13:26:20;;;;;;;;;;;21.30;70.50;;;;;;5060178;28;20000;-72
2023/09/20 13:28:45;;;;;;;;;;;21.30;70.50;;;;;;5062741;28;19921;-72
2023/09/20 13:31:12;;;;;;;;;;;21.20;70.50;;;;;;5062263;28;19921;-72
2023/09/20 13:33:39;;;;;;;;;;;21.30;70.50;;;;;;5066964;28;19920;-72
2023/09/20 13:36:05;;;;;;;;;;;21.20;70.60;;;;;;5060833;28;19921;-73
2023/09/20 13:38:30;;;;;;;;;;;21.20;70.60;;;;;;5062667;28;19924;-73
2023/09/20 13:40:56;;;;;;;;;;;21.20;70.60;;;;;;5064801;28;19916;-72
2023/09/20 13:43:24;;;;;;;;;;;21.20;70.60;;;;;;5071547;28;20356;-72
2023/09/20 13:45:51;;;;;;;;;;;21.20;70.50;;;;;;5071941;28;19928;-72
2023/09/20 13:48:18;;;;;;;;;;;21.20;70.60;;;;;;5073145;28;20318;-72
2023/09/20 13:50:43;;;;;;;;;;;21.20;70.60;;;;;;5072213;28;19920;-72
2023/09/20 13:53:09;;;;;;;;;;;21.20;70.70;;;;;;5071372;28;20368;-72
2023/09/20 13:55:35;;;;;;;;;;;21.10;70.60;;;;;;5071343;28;20430;-72
2023/09/20 13:58:01;;;;;;;;;;;21.10;70.60;;;;;;5070382;28;20352;-73
2023/09/20 14:00:28;;;;;;;;;;;21.10;70.60;;;;;;5070631;28;19921;-72
2023/09/20 14:02:54;;;;;;;;;;;21.10;70.60;;;;;;5071083;28;19921;-72
2023/09/20 14:05:21;;;;;;;;;;;21.10;70.60;;;;;;5071260;28;20323;-72
2023/09/20 14:07:47;;;;;;;;;;;21.10;70.60;;;;;;5071646;28;20308;-72
2023/09/20 14:10:14;;;;;;;;;;;21.10;70.60;;;;;;5071820;28;19920;-72
2023/09/20 14:12:42;;;;;;;;;;;21.10;70.60;;;;;;5071653;28;19969;-72
2023/09/20 14:15:10;;;;;;;;;;;21.10;70.60;;;;;;5104798;28;19943;-72
2023/09/20 14:17:36;;;;;;;;;;;21.10;70.70;;;;;;5096362;27;19939;-73
2023/09/20 14:20:09;;;;;;;;;;;21.10;70.60;;;;;;5068634;28;19920;-74
2023/09/20 14:22:35;;;;;;;;;;;21.20;70.70;;;;;;5095180;27;19921;-73
2023/09/20 14:25:00;;;;;;;;;;;21.10;70.90;;;;;;5066473;28;19925;-73
2023/09/20 14:27:26;;;;;;;;;;;21.20;70.90;;;;;;5095281;27;19921;-73
2023/09/20 14:29:51;;;;;;;;;;;21.30;71.00;;;;;;5070535;28;19927;-72
2023/09/20 14:32:17;;;;;;;;;;;21.30;71.00;;;;;;5069119;28;19927;-71
2023/09/20 14:34:42;;;;;;;;;;;21.30;70.90;;;;;;5070067;28;19946;-72
2023/09/20 14:37:08;;;;;;;;;;;21.30;70.80;;;;;;5071114;28;20383;-72
2023/09/20 14:39:34;;;;;;;;;;;21.30;70.80;;;;;;5071231;28;20287;-72
2023/09/20 14:41:59;;;;;;;;;;;21.30;70.80;;;;;;5071292;28;19928;-72
2023/09/20 14:44:25;;;;;;;;;;;21.30;70.80;;;;;;5071110;28;19921;-71
2023/09/20 14:46:50;;;;;;;;;;;21.20;70.80;;;;;;5071453;28;19968;-72
2023/09/20 14:49:16;;;;;;;;;;;21.20;70.80;;;;;;5071067;28;19920;-71
2023/09/20 14:51:41;;;;;;;;;;;21.20;70.80;;;;;;5072442;28;19920;-72
2023/09/20 14:54:08;;;;;;;;;;;21.20;70.80;;;;;;5071347;28;19999;-72
2023/09/20 14:56:33;;;;;;;;;;;21.20;70.80;;;;;;5071032;28;20050;-72
2023/09/20 14:58:59;;;;;;;;;;;21.20;70.80;;;;;;5070676;28;20081;-72